Terminal Aerodrome Forecast
Issued by NWS

Home | Current Version | Previous Version | Text Only | Print | Product List | Glossary On
Versions: 1 2 3 4 5 6 7 8 9 10 11 12 13 14 15 16 17 18 19 20 21 22 23 24 25 26 27 28 29 30 31 32 33 34 35 36
204
FTUS45 KBOU 252237 AAA
TAFBJC
TAF AMD
KBJC 252237Z 2523/2618 09007KT P6SM FEW080 BKN120
     FM260100 34008KT P6SM SCT080 SCT140
     FM260300 30007KT P6SM FEW080 SCT140
     FM261300 VRB04KT P6SM SCT060 BKN120
     FM261500 06008KT P6SM VCSH BKN060 OVC120=

USA.gov is the U.S. government's official web portal to all federal, state and local government web resources and services.